createdAt,value
2023-05-03T00:01:09.768Z,8.20
2023-05-03T00:03:38.462Z,8.20
2023-05-03T00:06:12.919Z,8.20
2023-05-03T00:08:40.065Z,8.20
2023-05-03T00:11:07.192Z,8.20
2023-05-03T00:13:34.107Z,8.20
2023-05-03T00:16:02.047Z,8.10
2023-05-03T00:18:30.449Z,8.10
2023-05-03T00:20:58.974Z,8.10
2023-05-03T00:23:26.831Z,8.00
2023-05-03T00:25:57.349Z,8.00
2023-05-03T00:28:26.852Z,8.00
2023-05-03T00:30:53.896Z,7.90
2023-05-03T00:33:20.810Z,7.90
2023-05-03T00:35:48.956Z,7.80
2023-05-03T00:38:15.803Z,7.80
2023-05-03T00:40:43.878Z,7.80
2023-05-03T00:43:13.938Z,7.80
2023-05-03T00:45:41.260Z,7.80
2023-05-03T00:48:08.228Z,7.80
2023-05-03T00:50:36.840Z,7.80
2023-05-03T00:53:03.788Z,7.80
2023-05-03T00:55:33.659Z,7.80
2023-05-03T00:58:00.561Z,7.80
2023-05-03T01:00:29.083Z,7.70
2023-05-03T01:02:56.152Z,7.80
2023-05-03T01:05:23.110Z,7.70
2023-05-03T01:08:00.024Z,7.70
2023-05-03T01:10:57.834Z,7.70
2023-05-03T01:13:46.143Z,7.70
2023-05-03T01:16:21.529Z,7.70
2023-05-03T01:18:49.868Z,7.60
2023-05-03T01:21:18.603Z,7.60
2023-05-03T01:24:07.296Z,7.60
2023-05-03T01:26:34.152Z,7.60
2023-05-03T01:29:01.005Z,7.50
2023-05-03T01:31:44.761Z,7.50
2023-05-03T01:34:18.416Z,7.50
2023-05-03T01:36:45.545Z,7.40
2023-05-03T01:39:23.394Z,7.40
2023-05-03T01:41:53.207Z,7.40
2023-05-03T01:44:20.303Z,7.30
2023-05-03T01:46:47.447Z,7.40
2023-05-03T01:49:14.540Z,7.30
2023-05-03T01:51:41.397Z,7.30
2023-05-03T01:54:08.448Z,7.30
2023-05-03T01:56:36.821Z,7.40
2023-05-03T01:59:04.185Z,7.40
2023-05-03T02:01:31.130Z,7.30
2023-05-03T02:03:58.116Z,7.30
2023-05-03T02:06:28.239Z,7.20
2023-05-03T02:08:55.536Z,7.20
2023-05-03T02:11:22.467Z,7.20
2023-05-03T02:13:50.547Z,7.20
2023-05-03T02:16:20.912Z,7.20
2023-05-03T02:18:47.880Z,7.20
2023-05-03T02:21:15.447Z,7.10
2023-05-03T02:23:42.310Z,7.10
2023-05-03T02:26:09.202Z,7.10
2023-05-03T02:28:36.208Z,7.10
2023-05-03T02:31:03.211Z,7.10
2023-05-03T02:33:30.147Z,7.10
2023-05-03T02:35:57.154Z,7.10
2023-05-03T02:38:24.048Z,7.10
2023-05-03T02:40:51.088Z,7.10
2023-05-03T02:43:17.931Z,7.10
2023-05-03T02:45:44.946Z,7.10
2023-05-03T02:48:12.593Z,7.00
2023-05-03T02:50:40.041Z,7.00
2023-05-03T02:53:07.018Z,7.00
2023-05-03T02:55:33.856Z,7.00
2023-05-03T02:58:01.114Z,7.00
2023-05-03T03:00:28.208Z,7.00
2023-05-03T03:02:55.260Z,7.00
2023-05-03T03:05:22.220Z,6.90
2023-05-03T03:07:49.132Z,6.90
2023-05-03T03:10:16.252Z,7.00
2023-05-03T03:12:43.192Z,6.90
2023-05-03T03:15:10.680Z,6.90
2023-05-03T03:17:40.552Z,6.80
2023-05-03T03:20:11.490Z,6.80
2023-05-03T03:22:39.236Z,6.80
2023-05-03T03:25:06.921Z,6.80
2023-05-03T03:27:34.087Z,6.80
2023-05-03T03:30:01.562Z,6.80
2023-05-03T03:32:29.122Z,6.80
2023-05-03T03:34:56.429Z,6.80
2023-05-03T03:37:23.752Z,6.80
2023-05-03T03:39:50.759Z,6.80
2023-05-03T03:42:19.044Z,6.80
2023-05-03T03:44:46.092Z,6.80
2023-05-03T03:47:13.099Z,6.90
2023-05-03T03:49:39.986Z,6.90
2023-05-03T03:52:07.012Z,6.90
2023-05-03T03:54:35.869Z,7.00
2023-05-03T03:57:05.705Z,7.00
2023-05-03T03:59:32.546Z,6.90
2023-05-03T04:01:59.689Z,7.00
2023-05-03T04:04:26.652Z,7.00
2023-05-03T04:06:53.558Z,7.00
2023-05-03T04:09:21.611Z,7.00
2023-05-03T04:11:49.047Z,7.00
2023-05-03T04:14:15.955Z,7.00
2023-05-03T04:16:42.917Z,7.00
2023-05-03T04:19:09.844Z,7.00
2023-05-03T04:21:37.689Z,7.00
2023-05-03T04:24:06.099Z,7.00
2023-05-03T04:26:33.684Z,7.00
2023-05-03T04:29:00.550Z,7.00
2023-05-03T04:31:28.417Z,7.00
2023-05-03T04:33:55.635Z,7.00
2023-05-03T04:36:25.982Z,7.00
2023-05-03T04:38:53.001Z,7.00
2023-05-03T04:41:20.743Z,7.10
2023-05-03T04:43:47.701Z,7.10
2023-05-03T04:46:14.579Z,7.30
2023-05-03T04:48:41.494Z,7.40
2023-05-03T04:51:08.425Z,7.50
2023-05-03T04:53:35.296Z,7.50
2023-05-03T04:56:02.790Z,7.70
2023-05-03T04:58:29.642Z,7.70
2023-05-03T05:00:56.483Z,7.60
2023-05-03T05:03:23.421Z,7.70
2023-05-03T05:05:51.469Z,7.70
2023-05-03T05:08:18.446Z,7.60
2023-05-03T05:10:45.361Z,7.60
2023-05-03T05:13:12.405Z,7.50
2023-05-03T05:15:39.288Z,7.50
2023-05-03T05:18:06.352Z,7.60
2023-05-03T05:20:33.243Z,7.60
2023-05-03T05:23:00.135Z,7.50
2023-05-03T05:25:27.408Z,7.50
2023-05-03T05:27:54.248Z,7.50
2023-05-03T05:30:21.196Z,7.60
2023-05-03T05:32:48.130Z,7.60
2023-05-03T05:35:17.719Z,7.70
2023-05-03T05:37:44.972Z,7.70
2023-05-03T05:40:12.501Z,7.80
2023-05-03T05:42:39.367Z,7.80
2023-05-03T05:45:08.292Z,7.80
2023-05-03T05:47:36.267Z,7.80
2023-05-03T05:50:09.640Z,7.90
2023-05-03T05:52:42.146Z,8.00
2023-05-03T05:55:09.730Z,8.00
2023-05-03T05:57:36.597Z,8.10
2023-05-03T06:00:09.288Z,8.10
2023-05-03T06:02:36.227Z,8.10
2023-05-03T06:05:07.682Z,8.20
2023-05-03T06:07:34.844Z,8.30
2023-05-03T06:10:02.575Z,8.30
2023-05-03T06:12:29.762Z,8.40
2023-05-03T06:15:02.668Z,8.40
2023-05-03T06:17:30.174Z,8.40
2023-05-03T06:19:57.868Z,8.50
2023-05-03T06:22:26.388Z,8.50
2023-05-03T06:24:55.538Z,8.50
2023-05-03T06:27:22.418Z,8.60
2023-05-03T06:29:50.139Z,8.70
2023-05-03T06:32:17.133Z,8.70
2023-05-03T06:34:44.120Z,8.80
2023-05-03T06:37:11.421Z,8.70
2023-05-03T06:39:38.403Z,8.80
2023-05-03T06:42:06.402Z,8.90
2023-05-03T06:44:33.512Z,9.00
2023-05-03T06:47:00.622Z,9.20
2023-05-03T06:49:27.501Z,9.30
2023-05-03T06:51:54.349Z,9.30
2023-05-03T06:54:21.375Z,9.50
2023-05-03T06:56:48.236Z,9.70
2023-05-03T06:59:16.826Z,9.80
2023-05-03T07:01:43.927Z,9.70
2023-05-03T07:04:10.971Z,9.80
2023-05-03T07:06:52.565Z,9.90
2023-05-03T07:09:35.408Z,10.00
2023-05-03T07:12:09.762Z,10.10
2023-05-03T07:14:36.761Z,10.10
2023-05-03T07:17:03.732Z,10.00
2023-05-03T07:19:30.658Z,9.90
2023-05-03T07:21:57.583Z,9.90
2023-05-03T07:24:27.508Z,10.10
2023-05-03T07:26:54.452Z,10.10
2023-05-03T07:29:21.583Z,10.10
2023-05-03T07:31:51.423Z,10.20
2023-05-03T07:34:19.746Z,10.20
2023-05-03T07:36:46.673Z,10.30
2023-05-03T07:39:13.551Z,10.30
2023-05-03T07:41:40.560Z,10.40
2023-05-03T07:44:07.869Z,10.70
2023-05-03T07:46:35.418Z,10.80
2023-05-03T07:49:04.312Z,10.90
2023-05-03T07:51:38.404Z,11.00
2023-05-03T07:54:05.576Z,10.90
2023-05-03T07:56:33.471Z,10.90
2023-05-03T07:59:09.417Z,11.10
2023-05-03T08:01:37.529Z,11.10
2023-05-03T08:04:04.871Z,11.10
2023-05-03T08:06:32.775Z,11.20
2023-05-03T08:08:59.751Z,11.30
2023-05-03T08:11:28.783Z,11.30
2023-05-03T08:13:56.125Z,11.30
2023-05-03T08:16:23.217Z,11.30
2023-05-03T08:18:50.461Z,11.50
2023-05-03T08:21:17.763Z,11.80
2023-05-03T08:23:45.214Z,11.80
2023-05-03T08:26:14.340Z,11.90
2023-05-03T08:28:41.739Z,12.20
2023-05-03T08:31:08.910Z,12.20
2023-05-03T08:33:35.996Z,12.10
2023-05-03T08:36:03.284Z,12.30
2023-05-03T08:38:30.285Z,12.40
2023-05-03T08:40:58.803Z,12.50
2023-05-03T08:43:28.080Z,12.70
2023-05-03T08:45:55.198Z,12.70
2023-05-03T08:48:22.193Z,12.70
2023-05-03T08:50:51.796Z,12.80
2023-05-03T08:53:18.704Z,12.90
2023-05-03T08:55:45.799Z,12.70
2023-05-03T08:58:13.444Z,12.70
2023-05-03T09:00:45.486Z,12.90
2023-05-03T09:03:12.996Z,13.20
2023-05-03T09:05:41.426Z,13.00
2023-05-03T09:08:10.537Z,12.70
2023-05-03T09:10:39.603Z,12.80
2023-05-03T09:13:07.612Z,12.90
2023-05-03T09:15:34.734Z,13.10
2023-05-03T09:18:18.751Z,13.40
2023-05-03T09:20:53.236Z,13.50
2023-05-03T09:23:31.980Z,13.30
2023-05-03T09:25:59.856Z,13.70
2023-05-03T09:28:27.507Z,13.70
2023-05-03T09:31:07.112Z,13.50
2023-05-03T09:33:34.133Z,13.10
2023-05-03T09:36:05.219Z,13.20
2023-05-03T09:38:33.802Z,13.30
2023-05-03T09:41:01.611Z,13.40
2023-05-03T09:43:28.726Z,13.40
2023-05-03T09:46:09.464Z,13.60
2023-05-03T09:48:37.769Z,13.60
2023-05-03T09:51:05.812Z,13.70
2023-05-03T09:53:33.549Z,13.80
2023-05-03T09:56:03.908Z,14.10
2023-05-03T09:58:35.103Z,14.20
2023-05-03T10:01:02.121Z,14.30
2023-05-03T10:03:34.845Z,14.50
2023-05-03T10:06:03.820Z,14.60
2023-05-03T10:08:35.271Z,14.70
2023-05-03T10:11:03.967Z,14.60
2023-05-03T10:13:30.854Z,14.40
2023-05-03T10:16:01.456Z,14.60
2023-05-03T10:18:29.841Z,14.70
2023-05-03T10:21:06.986Z,14.60
2023-05-03T10:23:33.837Z,14.70
2023-05-03T10:26:11.605Z,14.80
2023-05-03T10:28:38.446Z,14.70
2023-05-03T10:31:05.503Z,14.70
2023-05-03T10:33:35.023Z,14.80
2023-05-03T10:36:06.993Z,14.50
2023-05-03T10:38:33.870Z,14.60
2023-05-03T10:41:03.680Z,14.60
2023-05-03T10:43:31.034Z,14.70
2023-05-03T10:46:05.228Z,14.80
2023-05-03T10:48:33.209Z,14.70
2023-05-03T10:51:30.762Z,14.70
2023-05-03T10:53:57.903Z,14.70
2023-05-03T10:56:24.874Z,14.70
2023-05-03T10:58:56.072Z,14.90
2023-05-03T11:01:23.178Z,15.20
2023-05-03T11:04:00.095Z,15.20
2023-05-03T11:06:34.912Z,15.00
2023-05-03T11:09:04.268Z,14.90
2023-05-03T11:11:31.634Z,14.80
2023-05-03T11:13:58.670Z,14.90
2023-05-03T11:16:26.023Z,15.10
2023-05-03T11:18:53.279Z,15.10
2023-05-03T11:21:21.202Z,14.90
2023-05-03T11:23:48.138Z,15.00
2023-05-03T11:26:15.050Z,15.20
2023-05-03T11:28:42.482Z,15.00
2023-05-03T11:31:13.426Z,15.00
2023-05-03T11:33:40.601Z,15.10
2023-05-03T11:36:09.598Z,15.10
2023-05-03T11:38:38.351Z,15.00
2023-05-03T11:41:18.125Z,15.20
2023-05-03T11:43:46.329Z,15.40
2023-05-03T11:46:23.112Z,15.30
2023-05-03T11:48:50.246Z,15.20
2023-05-03T11:51:24.622Z,15.50
2023-05-03T11:53:51.944Z,15.60
2023-05-03T11:56:20.625Z,15.70
2023-05-03T11:58:52.693Z,15.60
2023-05-03T12:01:22.202Z,15.60
2023-05-03T12:03:52.835Z,15.50
2023-05-03T12:06:20.439Z,15.40
2023-05-03T12:08:47.752Z,15.60
2023-05-03T12:11:16.885Z,15.90
2023-05-03T12:13:45.042Z,15.90
2023-05-03T12:16:15.670Z,15.70
2023-05-03T12:18:58.815Z,15.70
2023-05-03T12:21:55.350Z,15.80
2023-05-03T12:24:28.686Z,15.90
2023-05-03T12:26:57.465Z,16.00
2023-05-03T12:29:24.980Z,16.00
2023-05-03T12:31:52.754Z,16.00
2023-05-03T12:34:33.856Z,16.10
2023-05-03T12:37:04.978Z,15.80
2023-05-03T12:39:33.550Z,15.60
2023-05-03T12:42:07.117Z,15.80
2023-05-03T12:44:35.443Z,15.80
2023-05-03T12:47:03.790Z,16.10
2023-05-03T12:49:31.471Z,16.10
2023-05-03T12:54:33.795Z,16.20
2023-05-03T12:57:08.581Z,16.40
2023-05-03T12:59:42.556Z,16.40
2023-05-03T13:04:57.927Z,16.50
2023-05-03T13:07:32.108Z,16.40
2023-05-03T13:12:34.525Z,16.60
2023-05-03T13:15:02.905Z,16.70
2023-05-03T13:17:31.273Z,16.60
2023-05-03T13:19:58.284Z,16.60
2023-05-03T13:22:26.175Z,16.60
2023-05-03T13:24:53.209Z,16.60
2023-05-03T13:27:20.084Z,16.60
2023-05-03T13:29:49.320Z,16.70
2023-05-03T13:32:16.910Z,16.80
2023-05-03T13:34:44.286Z,16.70
2023-05-03T13:37:11.858Z,16.80
2023-05-03T13:39:38.860Z,16.90
2023-05-03T13:42:06.166Z,16.80
2023-05-03T13:44:33.097Z,16.80
2023-05-03T13:47:00.042Z,16.90
2023-05-03T13:49:26.981Z,17.00
2023-05-03T13:51:54.460Z,16.90
2023-05-03T13:54:21.467Z,16.70
2023-05-03T13:56:48.436Z,17.10
2023-05-03T13:59:15.909Z,16.90
2023-05-03T14:01:43.484Z,17.20
2023-05-03T14:04:10.842Z,17.10
2023-05-03T14:06:40.357Z,17.20
2023-05-03T14:09:09.342Z,17.20
2023-05-03T14:11:36.201Z,17.20
2023-05-03T14:14:03.490Z,17.30
2023-05-03T14:16:40.996Z,17.40
2023-05-03T14:19:11.056Z,17.30
2023-05-03T14:21:38.516Z,17.30
2023-05-03T14:24:06.659Z,17.20
2023-05-03T14:26:34.345Z,17.00
2023-05-03T14:29:01.529Z,17.20
2023-05-03T14:31:30.449Z,17.30
2023-05-03T14:33:59.498Z,17.40
2023-05-03T14:36:31.583Z,17.40
2023-05-03T14:38:58.570Z,17.20
2023-05-03T14:41:26.415Z,17.30
2023-05-03T14:43:53.247Z,17.50
2023-05-03T14:46:20.203Z,17.20
2023-05-03T14:48:47.199Z,17.30
2023-05-03T14:51:15.092Z,17.20
2023-05-03T14:53:42.003Z,17.20
2023-05-03T14:56:08.852Z,16.80
2023-05-03T14:58:35.727Z,16.70
2023-05-03T15:01:02.787Z,16.70
2023-05-03T15:03:30.590Z,16.80
2023-05-03T15:05:57.458Z,17.10
2023-05-03T15:08:24.367Z,17.10
2023-05-03T15:10:51.807Z,17.20
2023-05-03T15:13:19.799Z,17.30
2023-05-03T15:15:46.799Z,17.40
2023-05-03T15:18:14.709Z,17.30
2023-05-03T15:20:41.663Z,17.40
2023-05-03T15:23:08.623Z,17.60
2023-05-03T15:25:35.694Z,17.50
2023-05-03T15:28:04.474Z,17.40
2023-05-03T15:30:32.938Z,17.30
2023-05-03T15:33:01.109Z,17.30
2023-05-03T15:35:28.073Z,17.30
2023-05-03T15:37:55.014Z,17.40
2023-05-03T15:40:24.357Z,17.60
2023-05-03T15:42:52.485Z,17.60
2023-05-03T15:45:19.492Z,17.70
2023-05-03T15:47:46.482Z,18.00
2023-05-03T15:50:13.907Z,18.10
2023-05-03T15:52:42.320Z,17.90
2023-05-03T15:55:09.931Z,17.60
2023-05-03T15:57:37.311Z,17.60
2023-05-03T16:00:16.016Z,17.50
2023-05-03T16:02:43.029Z,17.70
2023-05-03T16:05:11.221Z,17.50
2023-05-03T16:07:38.180Z,17.40
2023-05-03T16:10:06.585Z,17.30
2023-05-03T16:12:33.841Z,17.50
2023-05-03T16:15:01.065Z,17.60
2023-05-03T16:17:28.171Z,17.40
2023-05-03T16:19:55.054Z,17.10
2023-05-03T16:22:21.971Z,17.00
2023-05-03T16:24:48.909Z,16.60
2023-05-03T16:27:15.890Z,16.60
2023-05-03T16:29:42.778Z,16.80
2023-05-03T16:32:11.041Z,16.70
2023-05-03T16:34:38.053Z,16.30
2023-05-03T16:37:05.100Z,16.30
2023-05-03T16:39:32.528Z,16.20
2023-05-03T16:42:01.089Z,16.00
2023-05-03T16:44:28.151Z,16.10
2023-05-03T16:46:55.258Z,16.60
2023-05-03T16:49:22.339Z,17.00
2023-05-03T16:51:49.252Z,17.30
2023-05-03T16:54:16.996Z,17.60
2023-05-03T16:56:44.479Z,18.00
2023-05-03T16:59:11.819Z,17.70
2023-05-03T17:01:38.708Z,17.50
2023-05-03T17:04:06.651Z,17.60
2023-05-03T17:06:33.715Z,17.70
2023-05-03T17:09:00.680Z,18.00
2023-05-03T17:11:28.638Z,18.40
2023-05-03T17:13:55.651Z,18.50
2023-05-03T17:16:22.850Z,18.50
2023-05-03T17:18:49.869Z,18.40
2023-05-03T17:21:16.862Z,18.30
2023-05-03T17:23:43.735Z,18.10
2023-05-03T17:26:10.926Z,17.90
2023-05-03T17:28:37.855Z,17.60
2023-05-03T17:31:06.495Z,17.20
2023-05-03T17:33:33.892Z,16.70
2023-05-03T17:36:02.493Z,16.30
2023-05-03T17:38:29.354Z,16.00
2023-05-03T17:40:56.221Z,15.70
2023-05-03T17:43:23.177Z,15.70
2023-05-03T17:45:50.106Z,15.70
2023-05-03T17:48:16.965Z,15.60
2023-05-03T17:50:46.305Z,15.50
2023-05-03T17:53:13.329Z,15.40
2023-05-03T17:55:40.429Z,15.30
2023-05-03T17:58:09.445Z,15.30
2023-05-03T18:00:36.483Z,15.40
2023-05-03T18:03:03.539Z,15.30
2023-05-03T18:05:36.851Z,15.20
2023-05-03T18:08:04.153Z,15.10
2023-05-03T18:10:31.353Z,15.10
2023-05-03T18:12:58.414Z,15.00
2023-05-03T18:15:25.887Z,15.00
2023-05-03T18:17:53.093Z,14.90
2023-05-03T18:20:20.165Z,14.80
2023-05-03T18:22:47.306Z,14.80
2023-05-03T18:25:14.232Z,14.70
2023-05-03T18:27:41.230Z,14.70
2023-05-03T18:30:09.235Z,14.60
2023-05-03T18:32:36.308Z,14.60
2023-05-03T18:35:03.792Z,14.40
2023-05-03T18:37:30.836Z,14.40
2023-05-03T18:39:57.705Z,14.40
2023-05-03T18:42:24.630Z,14.40
2023-05-03T18:44:52.107Z,14.30
2023-05-03T18:47:21.623Z,14.30
2023-05-03T18:49:52.727Z,14.20
2023-05-03T18:52:23.064Z,14.10
2023-05-03T18:54:50.374Z,14.00
2023-05-03T18:57:17.301Z,14.00
2023-05-03T18:59:56.594Z,14.00
2023-05-03T19:02:30.566Z,14.00
2023-05-03T19:04:59.988Z,13.90
2023-05-03T19:07:27.178Z,13.90
2023-05-03T19:09:55.179Z,13.90
2023-05-03T19:12:22.343Z,13.80
2023-05-03T19:14:49.287Z,13.80
2023-05-03T19:17:16.193Z,13.80
2023-05-03T19:19:43.040Z,13.70
2023-05-03T19:22:09.921Z,13.70
2023-05-03T19:24:36.959Z,13.70
2023-05-03T19:27:04.738Z,13.60
2023-05-03T19:29:31.695Z,13.60
2023-05-03T19:31:58.569Z,13.60
2023-05-03T19:34:25.514Z,13.60
2023-05-03T19:36:52.454Z,13.50
2023-05-03T19:39:19.331Z,13.50
2023-05-03T19:41:47.448Z,13.50
2023-05-03T19:44:14.396Z,13.50
2023-05-03T19:46:41.413Z,13.40
2023-05-03T19:49:08.306Z,13.40
2023-05-03T19:51:35.202Z,13.40
2023-05-03T19:54:05.191Z,13.30
2023-05-03T19:56:32.065Z,13.30
2023-05-03T19:58:58.994Z,13.30
2023-05-03T20:01:26.013Z,13.30
2023-05-03T20:03:54.976Z,13.20
2023-05-03T20:06:22.313Z,13.20
2023-05-03T20:08:51.145Z,13.20
2023-05-03T20:11:19.654Z,13.20
2023-05-03T20:13:46.906Z,13.10
2023-05-03T20:16:13.883Z,13.10
2023-05-03T20:18:41.721Z,13.10
2023-05-03T20:21:09.240Z,13.00
2023-05-03T20:23:37.751Z,13.00
2023-05-03T20:26:04.646Z,13.00
2023-05-03T20:28:32.639Z,12.90
2023-05-03T20:30:59.556Z,12.90
2023-05-03T20:33:26.465Z,12.90
2023-05-03T20:35:53.334Z,12.90
2023-05-03T20:38:20.420Z,12.90
2023-05-03T20:40:47.252Z,12.80
2023-05-03T20:43:14.150Z,12.80
2023-05-03T20:45:41.246Z,12.80
2023-05-03T20:48:09.029Z,12.80
2023-05-03T20:50:36.140Z,12.70
2023-05-03T20:53:04.136Z,12.70
2023-05-03T20:55:32.025Z,12.60
2023-05-03T20:57:59.008Z,12.60
2023-05-03T21:00:26.343Z,12.60
2023-05-03T21:02:54.439Z,12.60
2023-05-03T21:05:21.933Z,12.60
2023-05-03T21:07:48.948Z,12.60
2023-05-03T21:10:15.892Z,12.50
2023-05-03T21:12:42.911Z,12.50
2023-05-03T21:15:10.211Z,12.50
2023-05-03T21:17:37.250Z,12.50
2023-05-03T21:20:05.778Z,12.50
2023-05-03T21:22:32.891Z,12.50
2023-05-03T21:24:59.743Z,12.50
2023-05-03T21:27:26.565Z,12.40
2023-05-03T21:29:53.498Z,12.40
2023-05-03T21:32:20.381Z,12.30
2023-05-03T21:34:47.201Z,12.30
2023-05-03T21:37:14.093Z,12.30
2023-05-03T21:39:40.938Z,12.30
2023-05-03T21:42:07.877Z,12.30
2023-05-03T21:44:35.159Z,12.30
2023-05-03T21:47:02.953Z,12.20
2023-05-03T21:49:29.879Z,12.30
2023-05-03T21:51:56.756Z,12.30
2023-05-03T21:54:24.764Z,12.30
2023-05-03T21:56:51.696Z,12.30
2023-05-03T21:59:18.614Z,12.20
2023-05-03T22:01:45.487Z,12.20
2023-05-03T22:04:12.431Z,12.20
2023-05-03T22:06:39.314Z,12.20
2023-05-03T22:09:06.980Z,12.10
2023-05-03T22:11:33.834Z,12.10
2023-05-03T22:14:08.118Z,12.10
2023-05-03T22:16:37.772Z,12.10
2023-05-03T22:19:05.445Z,12.10
2023-05-03T22:21:32.615Z,12.00
2023-05-03T22:23:59.830Z,12.00
2023-05-03T22:26:26.877Z,12.00
2023-05-03T22:28:54.224Z,11.90
2023-05-03T22:31:21.175Z,11.90
2023-05-03T22:33:49.023Z,11.90
2023-05-03T22:36:16.184Z,11.90
2023-05-03T22:38:43.418Z,11.80
2023-05-03T22:41:10.536Z,11.80
2023-05-03T22:43:37.503Z,11.80
2023-05-03T22:46:04.514Z,11.70
2023-05-03T22:48:32.662Z,11.70
2023-05-03T22:50:59.798Z,11.70
2023-05-03T22:53:26.686Z,11.70
2023-05-03T22:56:01.499Z,11.60
2023-05-03T22:58:28.718Z,11.60
2023-05-03T23:00:55.718Z,11.60
2023-05-03T23:03:23.007Z,11.60
2023-05-03T23:05:51.726Z,11.60
2023-05-03T23:08:18.686Z,11.50
2023-05-03T23:10:45.702Z,11.50
2023-05-03T23:13:12.738Z,11.40
2023-05-03T23:15:40.675Z,11.40
2023-05-03T23:18:07.703Z,11.40
2023-05-03T23:20:35.609Z,11.40
2023-05-03T23:23:02.508Z,11.40
2023-05-03T23:25:29.794Z,11.30
2023-05-03T23:27:56.666Z,11.30
2023-05-03T23:30:24.168Z,11.30
2023-05-03T23:32:51.734Z,11.20
2023-05-03T23:35:19.379Z,11.20
2023-05-03T23:37:46.458Z,11.20
2023-05-03T23:40:13.360Z,11.20
2023-05-03T23:42:41.397Z,11.10
2023-05-03T23:45:09.813Z,11.10
2023-05-03T23:47:37.064Z,11.10
2023-05-03T23:50:04.675Z,11.10
2023-05-03T23:52:31.820Z,11.00
2023-05-03T23:54:59.741Z,11.00
2023-05-03T23:57:26.852Z,11.00
2023-05-03T23:59:53.910Z,11.00
